Time;durP1;ratioP1;P1;durP2;ratioP2;P2;SDS_P1;SDS_P2;PMS_P1;PMS_P2;Temp;Humidity;BMP_temperature;BMP_pressure;BME280_temperature;BME280_humidity;BME280_pressure;Samples;Min_cycle;Max_cycle;Signal;HPM_P1;HPM_P2
2023/01/21 00:00:15;;;;;;;37.50;19.00;;;0.40;99.90;;;;;;5066980;28;20075;-79
2023/01/21 00:02:41;;;;;;;44.50;21.08;;;0.40;99.90;;;;;;5064968;28;20102;-79
2023/01/21 00:05:07;;;;;;;40.35;19.35;;;0.40;99.90;;;;;;5051547;28;20029;-79
2023/01/21 00:07:33;;;;;;;44.40;20.35;;;0.40;99.90;;;;;;5050728;28;20128;-79
2023/01/21 00:09:58;;;;;;;42.40;21.25;;;0.50;99.90;;;;;;5048626;28;20037;-79
2023/01/21 00:12:24;;;;;;;39.45;20.23;;;0.40;99.90;;;;;;5051782;28;20072;-79
2023/01/21 00:14:50;;;;;;;38.17;18.88;;;0.40;99.90;;;;;;5047666;28;20049;-79
2023/01/21 00:17:15;;;;;;;42.90;21.15;;;0.40;99.90;;;;;;5045107;28;20049;-79
2023/01/21 00:19:41;;;;;;;35.83;18.90;;;0.80;99.90;;;;;;5046460;28;20056;-79
2023/01/21 00:22:07;;;;;;;42.00;19.92;;;0.40;99.90;;;;;;5047657;28;20049;-78
2023/01/21 00:24:32;;;;;;;39.20;20.80;;;0.40;99.90;;;;;;5047578;28;20080;-79
2023/01/21 00:26:58;;;;;;;37.92;19.25;;;0.40;99.90;;;;;;5047607;28;20094;-79
2023/01/21 00:29:25;;;;;;;42.58;19.98;;;0.40;99.90;;;;;;5040322;28;20107;-79
2023/01/21 00:31:51;;;;;;;37.45;18.90;;;0.40;99.90;;;;;;5048901;28;20059;-79
2023/01/21 00:34:16;;;;;;;36.20;18.67;;;0.40;99.90;;;;;;5045697;28;20049;-79
2023/01/21 00:36:42;;;;;;;40.63;19.33;;;0.40;99.90;;;;;;5056294;28;20033;-79
2023/01/21 00:39:08;;;;;;;41.42;19.42;;;0.30;99.90;;;;;;5041280;28;20052;-79
2023/01/21 00:41:36;;;;;;;39.97;18.75;;;0.30;99.90;;;;;;5044395;28;20464;-79
2023/01/21 00:44:02;;;;;;;43.42;19.65;;;0.20;99.90;;;;;;5047823;28;20043;-80
2023/01/21 00:46:30;;;;;;;37.10;19.23;;;0.20;99.90;;;;;;5049723;28;20108;-79
2023/01/21 00:48:56;;;;;;;41.90;18.95;;;0.10;99.90;;;;;;5045974;28;20053;-79
2023/01/21 00:51:22;;;;;;;36.05;18.25;;;0.00;99.90;;;;;;5049794;28;20037;-79
2023/01/21 00:53:48;;;;;;;40.58;19.10;;;-0.10;99.90;;;;;;5040351;28;20033;-79
2023/01/21 00:56:13;;;;;;;39.63;20.00;;;-0.20;99.90;;;;;;5049343;28;20143;-79
2023/01/21 00:58:42;;;;;;;41.28;20.10;;;0.10;99.90;;;;;;5048843;28;20557;-79
2023/01/21 01:01:19;;;;;;;38.28;19.00;;;-0.30;99.90;;;;;;5044108;28;20055;-79
2023/01/21 01:03:45;;;;;;;39.55;18.27;;;-0.30;99.90;;;;;;5045561;28;20037;-79
2023/01/21 01:06:15;;;;;;;44.33;20.25;;;-0.40;99.90;;;;;;5050438;28;20037;-79
2023/01/21 01:08:42;;;;;;;40.40;20.67;;;-0.40;99.90;;;;;;5041307;28;20084;-79
2023/01/21 01:11:08;;;;;;;43.92;21.30;;;-0.50;99.90;;;;;;5050192;28;20234;-79
2023/01/21 01:13:35;;;;;;;39.92;19.65;;;-0.50;99.90;;;;;;5048828;28;20163;-79
2023/01/21 01:16:01;;;;;;;38.53;19.08;;;-0.60;99.90;;;;;;5045806;28;20123;-79
2023/01/21 01:18:29;;;;;;;39.13;18.45;;;-0.60;99.90;;;;;;5045080;28;20197;-79
2023/01/21 01:20:55;;;;;;;39.63;19.40;;;-0.70;99.90;;;;;;5050304;28;20450;-79
2023/01/21 01:23:21;;;;;;;43.13;21.30;;;-0.70;99.90;;;;;;5042436;28;20515;-79
2023/01/21 01:25:55;;;;;;;44.15;21.00;;;-0.70;99.90;;;;;;5044678;28;20044;-79
2023/01/21 01:28:21;;;;;;;42.30;18.60;;;-0.80;99.90;;;;;;5048641;28;20075;-79
2023/01/21 01:30:46;;;;;;;41.90;19.95;;;-0.80;99.90;;;;;;5047662;28;20106;-79
2023/01/21 01:33:12;;;;;;;39.40;19.02;;;-0.80;99.90;;;;;;5047626;28;20041;-79
2023/01/21 01:35:38;;;;;;;37.40;18.20;;;-0.80;99.90;;;;;;5042311;28;20418;-79
2023/01/21 01:38:06;;;;;;;39.25;19.15;;;-0.90;99.90;;;;;;5048329;28;20411;-79
2023/01/21 01:40:33;;;;;;;45.13;21.58;;;-0.90;99.90;;;;;;5040215;28;20128;-79
2023/01/21 01:42:59;;;;;;;42.60;20.73;;;-0.90;99.90;;;;;;5046932;28;20500;-79
2023/01/21 01:45:24;;;;;;;45.70;21.60;;;-0.90;99.90;;;;;;5042916;28;20047;-79
2023/01/21 01:47:59;;;;;;;43.60;21.48;;;-0.90;99.90;;;;;;5049335;28;20052;-79
2023/01/21 01:50:29;;;;;;;42.60;20.15;;;-0.90;99.90;;;;;;5045685;28;20048;-79
2023/01/21 01:52:58;;;;;;;42.75;20.52;;;-0.90;99.90;;;;;;5043201;28;20041;-79
2023/01/21 01:55:24;;;;;;;42.65;20.30;;;-1.00;99.90;;;;;;5045211;28;20184;-79
2023/01/21 01:57:52;;;;;;;42.15;20.52;;;-1.00;99.90;;;;;;5044097;28;20487;-79
2023/01/21 02:00:19;;;;;;;42.42;20.00;;;-1.00;99.90;;;;;;5055299;28;20084;-79
2023/01/21 02:03:43;;;;;;;40.33;19.40;;;-1.00;99.90;;;;;;5046629;28;20041;-79
2023/01/21 02:05:37;;;;;;;41.30;20.10;;;-1.10;99.90;;;;;;5046988;28;20041;-79
2023/01/21 02:08:03;;;;;;;41.63;19.60;;;-1.10;99.90;;;;;;5042748;28;20055;-79
2023/01/21 02:10:30;;;;;;;41.90;18.83;;;-1.10;99.90;;;;;;5048159;28;20119;-79
2023/01/21 02:12:56;;;;;;;39.22;18.88;;;-1.10;99.90;;;;;;5047240;28;20041;-79
2023/01/21 02:15:34;;;;;;;46.10;20.45;;;-1.10;99.90;;;;;;5046737;28;20048;-79
2023/01/21 02:18:09;;;;;;;43.20;20.30;;;-1.10;99.90;;;;;;5041449;28;20469;-79
2023/01/21 02:20:53;;;;;;;;;;;-1.10;99.90;;;;;;5042212;28;20049;-79
2023/01/21 02:23:25;;;;;;;44.40;18.98;;;-1.20;99.90;;;;;;5044678;28;20371;-79
2023/01/21 02:26:16;;;;;;;42.13;19.15;;;-1.20;99.90;;;;;;5041324;28;20052;-79
2023/01/21 02:29:20;;;;;;;39.80;19.33;;;-1.20;99.90;;;;;;5044837;28;20499;-79
2023/01/21 02:31:58;;;;;;;40.83;18.90;;;-1.30;99.90;;;;;;5023322;28;20053;-79
2023/01/21 02:34:45;;;;;;;39.13;18.83;;;-1.30;99.90;;;;;;5026439;28;20045;-79
2023/01/21 02:37:29;;;;;;;43.72;18.92;;;-1.30;99.90;;;;;;5038091;28;20037;-79
2023/01/21 02:40:18;;;;;;;42.08;19.33;;;-1.30;99.90;;;;;;5063018;28;20044;-79
2023/01/21 02:42:46;;;;;;;41.45;19.20;;;-1.30;99.90;;;;;;5057565;28;20052;-79
2023/01/21 02:45:20;;;;;;;44.60;20.15;;;-1.30;99.90;;;;;;5043747;28;20045;-79
2023/01/21 02:48:09;;;;;;;42.80;18.83;;;-1.30;99.90;;;;;;5036447;28;20082;-78
2023/01/21 02:50:47;;;;;;;41.08;19.30;;;-1.30;99.90;;;;;;5018324;28;20076;-78
2023/01/21 02:53:27;;;;;;;42.60;19.27;;;-1.40;99.90;;;;;;5045671;28;20060;-78
2023/01/21 02:55:54;;;;;;;43.83;19.27;;;-1.40;99.90;;;;;;5045006;28;20045;-78
2023/01/21 02:58:27;;;;;;;42.45;20.00;;;-1.40;99.90;;;;;;5048171;28;20059;-78
2023/01/21 03:01:12;;;;;;;46.17;20.73;;;-1.40;99.90;;;;;;5045300;28;20052;-78
2023/01/21 03:03:56;;;;;;;44.90;17.40;;;-1.40;99.90;;;;;;5041113;28;20183;-78
2023/01/21 03:06:45;;;;;;;44.78;20.52;;;-1.40;99.90;;;;;;5058858;28;20036;-78
2023/01/21 03:09:19;;;;;;;50.63;20.83;;;-1.40;99.90;;;;;;5052654;28;20060;-78
2023/01/21 03:11:59;;;;;;;55.00;20.70;;;-1.30;99.90;;;;;;5046552;28;20053;-79
2023/01/21 03:17:46;;;;;;;80.85;21.15;;;-1.20;99.90;;;;;;5039002;28;20128;-78
2023/01/21 03:20:33;;;;;;;76.13;21.60;;;-1.20;99.90;;;;;;5039972;28;20033;-78
2023/01/21 03:23:02;;;;;;;63.95;21.98;;;-1.10;99.90;;;;;;5043367;28;20057;-78
2023/01/21 03:25:32;;;;;;;116.00;23.17;;;-1.10;99.90;;;;;;5046284;28;20133;-78
2023/01/21 03:28:00;;;;;;;117.35;23.02;;;-1.10;99.90;;;;;;5042965;28;20048;-78
2023/01/21 03:30:27;;;;;;;150.05;23.92;;;-1.00;99.90;;;;;;5041360;28;20059;-78
2023/01/21 03:32:56;;;;;;;118.93;23.25;;;-1.80;99.90;;;;;;5060065;28;20040;-78
2023/01/21 03:35:28;;;;;;;54.85;19.73;;;-1.00;99.90;;;;;;5041226;28;20072;-79
2023/01/21 03:37:59;;;;;;;101.13;22.08;;;-1.00;99.90;;;;;;5048577;28;20041;-78
2023/01/21 03:40:29;;;;;;;71.72;20.80;;;-0.90;99.90;;;;;;5046350;28;20060;-78
2023/01/21 03:42:55;;;;;;;53.30;20.13;;;-0.90;99.90;;;;;;5041571;28;20084;-78
2023/01/21 03:45:33;;;;;;;47.30;20.45;;;-0.90;99.90;;;;;;5051492;28;20040;-79
2023/01/21 03:48:04;;;;;;;50.67;19.73;;;-0.90;99.90;;;;;;5062905;28;20768;-78
2023/01/21 03:50:38;;;;;;;48.65;19.70;;;-0.90;99.90;;;;;;5044822;28;20044;-79
2023/01/21 03:53:04;;;;;;;63.60;22.42;;;-0.80;99.90;;;;;;5059005;28;20080;-79
2023/01/21 03:55:30;;;;;;;46.30;19.98;;;-0.90;99.90;;;;;;5045918;28;20169;-79
2023/01/21 03:57:56;;;;;;;44.45;19.98;;;-0.90;99.90;;;;;;5042890;28;20396;-78
2023/01/21 04:00:21;;;;;;;42.83;18.35;;;-0.90;99.90;;;;;;5046019;28;20572;-78
2023/01/21 04:02:47;;;;;;;43.70;18.92;;;-0.80;99.90;;;;;;5050112;28;20032;-78
2023/01/21 04:05:13;;;;;;;45.53;20.95;;;-0.80;99.90;;;;;;5051993;28;20103;-78
2023/01/21 04:07:39;;;;;;;46.60;19.02;;;-0.80;99.90;;;;;;5050716;28;20079;-78
2023/01/21 04:10:05;;;;;;;45.72;20.17;;;-0.80;99.90;;;;;;5042213;28;20041;-78
2023/01/21 04:12:30;;;;;;;48.40;19.60;;;-0.90;99.90;;;;;;5047991;28;20037;-78
2023/01/21 04:14:57;;;;;;;40.90;18.05;;;-0.90;99.90;;;;;;5050492;28;20319;-78
2023/01/21 04:17:22;;;;;;;44.70;19.75;;;-0.90;99.90;;;;;;5020024;28;20068;-78
2023/01/21 04:19:48;;;;;;;47.45;20.67;;;-0.90;99.90;;;;;;5034681;28;20471;-78
2023/01/21 04:22:13;;;;;;;51.63;21.52;;;-0.90;99.90;;;;;;5045721;28;20122;-78
2023/01/21 04:24:39;;;;;;;45.60;21.08;;;-0.10;99.90;;;;;;5049808;28;20056;-78
2023/01/21 04:27:05;;;;;;;48.83;20.75;;;-0.90;99.90;;;;;;5048814;28;20471;-79
2023/01/21 04:29:30;;;;;;;41.50;19.73;;;-0.90;99.90;;;;;;5044560;28;20080;-78
2023/01/21 04:31:56;;;;;;;48.58;20.60;;;-0.90;99.90;;;;;;5046938;28;20040;-78
2023/01/21 04:34:22;;;;;;;47.55;21.55;;;-0.90;99.90;;;;;;5044275;28;20037;-79
2023/01/21 04:36:47;;;;;;;46.83;19.92;;;-0.90;99.90;;;;;;5056438;28;20112;-78
2023/01/21 04:39:13;;;;;;;46.42;19.60;;;-0.90;99.90;;;;;;5045785;28;20041;-79
2023/01/21 04:41:39;;;;;;;48.28;19.90;;;-1.00;99.90;;;;;;5061706;28;20033;-78
2023/01/21 04:44:04;;;;;;;45.70;19.10;;;-0.10;99.90;;;;;;5049306;28;20033;-79
2023/01/21 04:46:30;;;;;;;47.88;19.02;;;-0.80;99.90;;;;;;5047865;28;20567;-79
2023/01/21 04:48:56;;;;;;;45.42;18.95;;;-0.90;99.90;;;;;;5041887;28;20049;-79
2023/01/21 04:51:21;;;;;;;51.38;21.42;;;-0.80;99.90;;;;;;5048534;28;20143;-79
2023/01/21 04:53:47;;;;;;;51.90;21.42;;;-0.70;99.90;;;;;;5047608;28;20037;-79
2023/01/21 04:56:13;;;;;;;48.33;21.48;;;-0.70;99.90;;;;;;5037929;28;20080;-79
2023/01/21 04:58:38;;;;;;;51.40;21.83;;;-0.60;99.90;;;;;;5049088;28;20408;-79
2023/01/21 05:01:04;;;;;;;49.28;21.13;;;-0.60;99.90;;;;;;5046887;28;20541;-79
2023/01/21 05:03:29;;;;;;;44.47;19.60;;;-0.60;99.90;;;;;;5046429;28;20045;-79
2023/01/21 05:05:55;;;;;;;45.88;18.95;;;-0.50;99.90;;;;;;5049987;28;20040;-79
2023/01/21 05:08:21;;;;;;;47.88;20.08;;;-0.50;99.90;;;;;;5048933;28;20142;-79
2023/01/21 05:10:47;;;;;;;47.55;18.55;;;-0.40;99.90;;;;;;5043969;28;20116;-78
2023/01/21 05:13:12;;;;;;;42.65;18.33;;;-0.40;99.90;;;;;;5028320;28;20180;-79
2023/01/21 05:15:38;;;;;;;49.60;20.40;;;-0.40;99.90;;;;;;5061576;28;20041;-79
2023/01/21 05:18:03;;;;;;;43.20;20.17;;;-0.40;99.90;;;;;;5043312;28;20484;-79
2023/01/21 05:20:29;;;;;;;53.05;21.33;;;-0.30;99.90;;;;;;5049223;28;20483;-79
2023/01/21 05:22:55;;;;;;;44.05;20.75;;;-0.30;99.90;;;;;;5042590;28;20053;-78
2023/01/21 05:25:20;;;;;;;40.53;17.58;;;-0.20;99.90;;;;;;5062237;28;20041;-78
2023/01/21 05:27:53;;;;;;;45.50;19.27;;;-0.20;99.90;;;;;;5043612;28;20098;-78
2023/01/21 05:30:19;;;;;;;49.67;21.27;;;-0.20;99.90;;;;;;5044437;28;20052;-79
2023/01/21 05:32:49;;;;;;;46.85;21.02;;;-0.20;99.90;;;;;;5049122;28;20037;-78
2023/01/21 05:35:17;;;;;;;36.40;17.15;;;-0.70;99.90;;;;;;5045890;28;20033;-79
2023/01/21 05:37:44;;;;;;;42.17;17.95;;;-0.20;99.90;;;;;;5047619;28;20159;-79
2023/01/21 05:40:10;;;;;;;46.83;19.60;;;-0.10;99.90;;;;;;5044225;28;20116;-79
2023/01/21 05:42:36;;;;;;;40.60;19.45;;;-0.10;99.90;;;;;;5048756;28;20041;-79
2023/01/21 05:45:02;;;;;;;46.83;20.65;;;-0.10;99.90;;;;;;5047513;28;20133;-79
2023/01/21 05:47:28;;;;;;;47.78;17.90;;;-0.10;99.90;;;;;;5043072;28;20037;-78
2023/01/21 05:49:53;;;;;;;43.13;19.58;;;-0.10;99.90;;;;;;5042215;28;20044;-78
2023/01/21 05:52:19;;;;;;;45.05;19.77;;;-0.10;99.90;;;;;;5037689;28;20033;-78
2023/01/21 05:54:45;;;;;;;45.47;20.40;;;-0.10;99.90;;;;;;5049290;28;20126;-78
2023/01/21 05:57:10;;;;;;;46.78;20.00;;;-0.10;99.90;;;;;;5046236;28;20178;-78
2023/01/21 05:59:36;;;;;;;45.20;19.52;;;-0.10;99.90;;;;;;5039508;28;20376;-79
2023/01/21 06:02:01;;;;;;;44.67;20.50;;;-0.10;99.90;;;;;;5049633;28;20111;-79
2023/01/21 06:04:29;;;;;;;43.88;19.83;;;0.00;99.90;;;;;;5046654;28;20167;-79
2023/01/21 06:06:56;;;;;;;39.58;19.17;;;0.00;99.90;;;;;;5045902;28;20111;-79
2023/01/21 06:09:21;;;;;;;38.35;17.05;;;0.90;99.90;;;;;;5042194;28;20090;-79
2023/01/21 06:11:47;;;;;;;48.85;20.95;;;0.00;99.90;;;;;;5046949;28;20065;-79
2023/01/21 06:14:13;;;;;;;46.67;20.75;;;0.00;99.90;;;;;;5040845;28;20506;-79
2023/01/21 06:16:39;;;;;;;48.58;20.75;;;0.00;99.90;;;;;;5048287;28;20040;-79
2023/01/21 06:19:04;;;;;;;43.75;19.25;;;0.00;99.90;;;;;;5041565;28;20147;-79
2023/01/21 06:21:30;;;;;;;44.50;20.95;;;0.00;99.90;;;;;;5046671;28;20482;-79
2023/01/21 06:23:56;;;;;;;46.92;19.42;;;0.00;99.90;;;;;;5048176;28;20060;-79
2023/01/21 06:26:22;;;;;;;47.30;20.58;;;0.00;99.90;;;;;;5048295;28;20044;-79
2023/01/21 06:28:47;;;;;;;50.55;24.10;;;0.00;99.90;;;;;;5043373;28;20052;-79
2023/01/21 06:31:13;;;;;;;52.10;22.65;;;-0.10;99.90;;;;;;5043965;28;20045;-79
2023/01/21 06:33:39;;;;;;;42.50;19.63;;;-0.10;99.90;;;;;;5041570;28;20544;-79
2023/01/21 06:36:04;;;;;;;46.83;20.13;;;-0.10;99.90;;;;;;5044903;28;20053;-79
2023/01/21 06:38:34;;;;;;;47.90;21.77;;;-0.20;99.90;;;;;;5047955;28;20214;-79
2023/01/21 06:41:01;;;;;;;47.35;21.50;;;-0.20;99.90;;;;;;5044618;28;20177;-79
2023/01/21 06:43:26;;;;;;;54.10;21.50;;;-0.20;99.90;;;;;;5049373;28;20047;-79
2023/01/21 06:45:52;;;;;;;43.83;19.42;;;-0.20;99.90;;;;;;5049617;28;20115;-79
2023/01/21 06:48:18;;;;;;;49.40;21.77;;;-0.20;99.90;;;;;;5040153;28;20048;-79
2023/01/21 06:50:43;;;;;;;47.88;20.23;;;-0.20;99.90;;;;;;5046674;28;20041;-79
2023/01/21 06:53:09;;;;;;;55.25;24.02;;;-0.20;99.90;;;;;;5040765;28;20481;-79
2023/01/21 06:55:34;;;;;;;46.20;21.17;;;-0.20;99.90;;;;;;5039967;28;20091;-79
2023/01/21 06:58:00;;;;;;;45.85;19.60;;;-0.20;99.90;;;;;;5041568;28;20451;-78
2023/01/21 07:00:26;;;;;;;48.55;21.90;;;-0.20;99.90;;;;;;5039926;28;20033;-79
2023/01/21 07:02:58;;;;;;;45.15;20.70;;;-0.20;99.90;;;;;;5038161;28;20057;-79
2023/01/21 07:05:24;;;;;;;47.83;22.02;;;-0.20;99.90;;;;;;5031158;28;20045;-79
2023/01/21 07:07:53;;;;;;;49.58;21.08;;;-0.20;99.90;;;;;;5044728;28;20060;-79
2023/01/21 07:10:19;;;;;;;49.08;21.38;;;-0.30;99.90;;;;;;5047151;28;20096;-79
2023/01/21 07:12:44;;;;;;;46.95;21.20;;;-0.30;99.90;;;;;;5047153;28;20065;-79
2023/01/21 07:15:10;;;;;;;55.95;22.85;;;-0.30;99.90;;;;;;5051134;28;20488;-79
2023/01/21 07:17:35;;;;;;;48.45;21.92;;;-0.20;99.90;;;;;;5045539;28;20430;-78
2023/01/21 07:20:01;;;;;;;45.42;20.50;;;-0.30;99.90;;;;;;5048289;28;20094;-79
2023/01/21 07:22:27;;;;;;;52.78;23.10;;;-0.30;99.90;;;;;;5041500;28;20449;-79
2023/01/21 07:24:52;;;;;;;49.92;22.05;;;-0.30;99.90;;;;;;5048665;28;20036;-79
2023/01/21 07:27:18;;;;;;;48.03;22.35;;;-0.30;99.90;;;;;;5048924;28;20383;-79
2023/01/21 07:29:43;;;;;;;49.58;24.35;;;-0.40;99.90;;;;;;5047417;28;20066;-79
2023/01/21 07:32:09;;;;;;;53.05;22.83;;;-0.50;99.90;;;;;;5048096;28;20044;-79
2023/01/21 07:34:34;;;;;;;49.70;22.08;;;-0.50;99.90;;;;;;5051350;28;20052;-79
2023/01/21 07:37:00;;;;;;;48.13;23.38;;;-0.60;99.90;;;;;;5041685;28;21242;-79
2023/01/21 07:39:25;;;;;;;47.97;21.55;;;-0.60;99.90;;;;;;5045001;28;20041;-79
2023/01/21 07:41:52;;;;;;;50.95;22.15;;;-0.60;99.90;;;;;;5051016;28;20037;-79
2023/01/21 07:44:17;;;;;;;45.83;21.55;;;-0.70;99.90;;;;;;5047795;28;20065;-79
2023/01/21 07:46:43;;;;;;;49.35;22.88;;;-0.70;99.90;;;;;;5045595;28;20079;-79
2023/01/21 07:49:11;;;;;;;58.45;22.60;;;-0.70;99.90;;;;;;5045822;28;20533;-79
2023/01/21 07:51:37;;;;;;;52.75;23.95;;;-0.80;99.90;;;;;;5047266;28;20094;-79
2023/01/21 07:54:03;;;;;;;52.70;23.48;;;-0.80;99.90;;;;;;5042770;28;20411;-79
2023/01/21 07:56:28;;;;;;;56.75;24.70;;;-0.80;99.90;;;;;;5049404;28;20126;-79
2023/01/21 07:58:54;;;;;;;55.22;23.90;;;-0.80;99.90;;;;;;5050713;28;20467;-79
2023/01/21 08:01:19;;;;;;;51.53;22.60;;;-0.90;99.90;;;;;;5052348;28;20028;-79
2023/01/21 08:03:45;;;;;;;52.78;23.23;;;-1.10;99.90;;;;;;5049366;28;20041;-79
2023/01/21 08:06:11;;;;;;;54.03;24.27;;;-1.00;99.90;;;;;;5051695;28;20064;-79
2023/01/21 08:08:36;;;;;;;54.40;24.20;;;-0.90;99.90;;;;;;5042730;28;20476;-79
2023/01/21 08:11:02;;;;;;;54.45;23.70;;;-0.90;99.90;;;;;;5051698;28;20078;-79
2023/01/21 08:13:27;;;;;;;60.67;25.00;;;-0.20;99.90;;;;;;5050988;28;20110;-79
2023/01/21 08:15:55;;;;;;;51.95;22.88;;;-0.90;99.90;;;;;;5047241;28;20047;-80
2023/01/21 08:18:22;;;;;;;59.97;25.92;;;-0.90;99.90;;;;;;5049542;28;20089;-80
2023/01/21 08:20:53;;;;;;;54.65;23.67;;;-0.90;99.90;;;;;;5052006;28;20063;-80
2023/01/21 08:23:18;;;;;;;56.95;26.05;;;-0.90;99.90;;;;;;5049933;28;20048;-80
2023/01/21 08:25:44;;;;;;;45.63;21.60;;;-0.60;99.90;;;;;;5043419;28;20450;-81
2023/01/21 08:28:10;;;;;;;59.75;25.45;;;-0.80;99.90;;;;;;5046815;28;20034;-80
2023/01/21 08:30:35;;;;;;;59.65;26.20;;;-0.80;99.90;;;;;;5046375;28;20041;-83
2023/01/21 08:33:01;;;;;;;66.00;28.13;;;-0.80;99.90;;;;;;5050246;28;20032;-80
2023/01/21 08:35:27;;;;;;;62.05;26.88;;;-1.00;99.90;;;;;;5045499;28;20060;-80
2023/01/21 08:37:56;;;;;;;62.25;27.15;;;-0.70;99.90;;;;;;5042710;28;20052;-80
2023/01/21 08:40:25;;;;;;;62.03;28.92;;;-0.60;99.90;;;;;;5046237;28;20037;-80
2023/01/21 08:42:51;;;;;;;55.38;26.05;;;-0.60;99.90;;;;;;5042124;28;20045;-80
2023/01/21 08:45:17;;;;;;;56.67;28.38;;;-0.60;99.90;;;;;;5044209;28;20040;-81
2023/01/21 08:47:42;;;;;;;56.83;28.00;;;-0.60;99.90;;;;;;5037729;28;20094;-80
2023/01/21 08:50:09;;;;;;;54.40;27.15;;;-0.60;99.90;;;;;;5041368;28;20068;-81
2023/01/21 08:52:34;;;;;;;55.63;26.98;;;-0.60;99.90;;;;;;5043752;28;20040;-82
2023/01/21 08:55:00;;;;;;;60.20;27.48;;;-0.60;99.90;;;;;;5042886;28;20304;-79
2023/01/21 08:57:28;;;;;;;56.97;28.10;;;-0.60;99.90;;;;;;5047237;28;20128;-80
2023/01/21 08:59:54;;;;;;;57.95;26.73;;;-0.50;99.90;;;;;;5049070;28;20037;-80
2023/01/21 09:02:19;;;;;;;54.65;27.83;;;-0.40;99.90;;;;;;5046932;28;20415;-80
2023/01/21 09:04:45;;;;;;;60.17;28.27;;;-0.40;99.90;;;;;;5037745;28;20037;-80
2023/01/21 09:07:11;;;;;;;54.40;26.50;;;-0.30;99.90;;;;;;5044598;28;20041;-82
2023/01/21 09:09:36;;;;;;;55.67;26.33;;;-0.30;99.90;;;;;;5045788;28;20048;-80
2023/01/21 09:12:04;;;;;;;56.63;25.77;;;-0.20;99.90;;;;;;5043382;28;20033;-80
2023/01/21 09:14:30;;;;;;;54.47;24.80;;;-0.20;99.90;;;;;;5043873;28;20110;-80
2023/01/21 09:16:55;;;;;;;87.70;30.88;;;-0.20;99.90;;;;;;5042695;28;20087;-80
2023/01/21 09:19:22;;;;;;;56.00;26.13;;;-0.20;99.90;;;;;;5048536;28;20095;-80
2023/01/21 09:21:48;;;;;;;54.65;25.75;;;-0.20;99.90;;;;;;5036326;28;20060;-80
2023/01/21 09:24:14;;;;;;;59.53;29.63;;;-0.20;99.90;;;;;;5043280;28;20049;-79
2023/01/21 09:26:45;;;;;;;60.35;27.58;;;-0.20;99.90;;;;;;5048049;28;20120;-80
2023/01/21 09:29:11;;;;;;;54.00;25.48;;;-0.20;99.90;;;;;;5042760;28;20056;-80
2023/01/21 09:31:37;;;;;;;60.88;28.67;;;-0.20;99.90;;;;;;5041655;28;20044;-80
2023/01/21 09:34:04;;;;;;;56.67;26.05;;;-0.20;99.90;;;;;;5048591;28;20041;-80
2023/01/21 09:36:32;;;;;;;63.10;27.52;;;-0.20;99.90;;;;;;5036217;28;20071;-80
2023/01/21 09:38:59;;;;;;;54.75;25.85;;;-0.20;99.90;;;;;;5037023;28;20041;-80
2023/01/21 09:41:44;;;;;;;56.05;24.65;;;-0.20;99.90;;;;;;5050472;28;20029;-80
2023/01/21 09:44:16;;;;;;;58.78;28.35;;;-0.20;99.90;;;;;;5049612;28;20550;-80
2023/01/21 09:47:21;;;;;;;53.90;26.77;;;-0.20;99.90;;;;;;5050398;28;20115;-80
2023/01/21 09:50:13;;;;;;;57.90;24.75;;;-0.20;99.90;;;;;;5049642;28;20040;-80
2023/01/21 09:52:43;;;;;;;52.40;25.88;;;-0.20;99.90;;;;;;5038720;28;20053;-80
2023/01/21 09:55:25;;;;;;;57.35;27.92;;;-0.10;99.90;;;;;;5044894;28;20403;-80
2023/01/21 09:58:11;;;;;;;57.67;26.42;;;-0.10;99.90;;;;;;5046238;28;20045;-80
2023/01/21 10:01:10;;;;;;;55.70;25.85;;;0.70;99.90;;;;;;5050271;28;20102;-80
2023/01/21 10:03:54;;;;;;;50.58;25.38;;;0.00;99.90;;;;;;5045994;28;20060;-80
2023/01/21 10:06:26;;;;;;;59.58;27.02;;;0.10;99.90;;;;;;5044146;28;20038;-80
2023/01/21 10:09:16;;;;;;;55.53;24.98;;;0.10;99.90;;;;;;5047225;28;20076;-80
2023/01/21 10:11:51;;;;;;;55.95;26.90;;;0.20;99.90;;;;;;5040210;28;20053;-80
2023/01/21 10:14:43;;;;;;;54.65;25.15;;;0.30;99.90;;;;;;5033109;28;20045;-80
2023/01/21 10:17:11;;;;;;;51.05;24.90;;;0.40;99.90;;;;;;5042884;28;20047;-80
2023/01/21 10:19:57;;;;;;;50.80;23.85;;;0.40;99.90;;;;;;5036929;28;20510;-80
2023/01/21 10:22:27;;;;;;;50.83;24.42;;;0.60;99.90;;;;;;5047780;28;20051;-80
2023/01/21 10:25:19;;;;;;;49.22;22.42;;;0.60;99.90;;;;;;5049666;28;20047;-80
2023/01/21 10:27:45;;;;;;;45.28;22.85;;;0.70;99.90;;;;;;5045079;28;20045;-80
2023/01/21 10:30:22;;;;;;;45.53;23.50;;;0.80;99.90;;;;;;5048752;28;20506;-80
2023/01/21 10:32:53;;;;;;;46.45;21.95;;;0.90;99.90;;;;;;5037000;28;20033;-80
2023/01/21 10:35:32;;;;;;;48.42;21.77;;;1.00;99.90;;;;;;5044194;28;20037;-80
2023/01/21 10:38:41;;;;;;;46.08;22.20;;;1.10;99.90;;;;;;5045071;28;20455;-80
2023/01/21 10:41:33;;;;;;;45.50;23.38;;;1.30;99.90;;;;;;5032415;28;20044;-80
2023/01/21 10:44:07;;;;;;;45.40;22.10;;;1.30;99.90;;;;;;5031403;28;20128;-80
2023/01/21 10:47:01;;;;;;;51.83;24.17;;;1.40;99.90;;;;;;5042235;28;20037;-80
2023/01/21 10:49:56;;;;;;;43.67;22.08;;;1.50;99.90;;;;;;5044331;28;20040;-80
2023/01/21 10:52:38;;;;;;;42.90;21.50;;;1.70;99.90;;;;;;5019126;28;20091;-80
2023/01/21 10:55:04;;;;;;;40.75;21.98;;;1.70;99.90;;;;;;5043829;28;20471;-80
2023/01/21 10:57:47;;;;;;;46.60;22.67;;;1.90;99.90;;;;;;5048191;28;20037;-81
2023/01/21 11:00:31;;;;;;;47.30;23.33;;;2.00;99.90;;;;;;5035919;28;20087;-80
2023/01/21 11:03:12;;;;;;;46.97;23.80;;;2.00;99.90;;;;;;5046605;28;20479;-80
2023/01/21 11:05:38;;;;;;;40.38;22.25;;;2.20;99.90;;;;;;5045127;28;20036;-80
2023/01/21 11:08:04;;;;;;;44.70;23.40;;;2.30;99.90;;;;;;5032772;28;20080;-80
2023/01/21 11:10:30;;;;;;;37.65;21.58;;;2.30;99.90;;;;;;5045765;28;20041;-80
2023/01/21 11:12:56;;;;;;;36.97;20.33;;;2.40;99.90;;;;;;5037793;28;20083;-80
2023/01/21 11:15:22;;;;;;;39.17;20.55;;;2.50;99.90;;;;;;5041061;28;20040;-80
2023/01/21 11:17:52;;;;;;;40.70;20.20;;;2.60;99.90;;;;;;5031711;28;20106;-80
2023/01/21 11:20:22;;;;;;;31.60;17.13;;;2.70;99.90;;;;;;5046893;28;20060;-80
2023/01/21 11:22:49;;;;;;;36.25;17.67;;;2.80;99.90;;;;;;5045152;28;20045;-80
2023/01/21 11:25:26;;;;;;;34.00;19.35;;;2.90;99.90;;;;;;5048564;28;20041;-80
2023/01/21 11:27:51;;;;;;;31.40;17.80;;;3.00;99.90;;;;;;5048753;28;20116;-80
2023/01/21 11:30:28;;;;;;;35.25;18.40;;;3.10;99.90;;;;;;5057066;28;20491;-81
2023/01/21 11:33:09;;;;;;;32.17;18.58;;;3.30;99.90;;;;;;5041883;28;20037;-81
2023/01/21 11:35:35;;;;;;;31.35;17.40;;;3.40;99.90;;;;;;5042398;28;20115;-80
2023/01/21 11:38:01;;;;;;;30.75;16.90;;;3.50;99.90;;;;;;5048864;28;20045;-81
2023/01/21 11:40:27;;;;;;;27.85;14.52;;;3.50;99.90;;;;;;5047388;28;20044;-80
2023/01/21 11:42:55;;;;;;;28.10;14.73;;;3.90;99.90;;;;;;5049081;28;20033;-80
2023/01/21 11:45:34;;;;;;;24.63;13.60;;;3.70;99.90;;;;;;5048449;28;20033;-80
2023/01/21 11:48:13;;;;;;;27.73;15.20;;;3.80;99.90;;;;;;5049044;28;20048;-80
2023/01/21 11:50:38;;;;;;;26.67;14.75;;;3.90;99.90;;;;;;5057841;28;20057;-82
2023/01/21 11:53:12;;;;;;;24.40;13.43;;;4.00;99.90;;;;;;5041418;28;20607;-81
2023/01/21 11:55:46;;;;;;;26.30;14.45;;;4.10;99.90;;;;;;5040489;28;20060;-80
2023/01/21 11:58:33;;;;;;;25.48;14.80;;;4.20;99.90;;;;;;5041556;28;20507;-80
2023/01/21 12:01:01;;;;;;;27.23;14.73;;;4.30;99.90;;;;;;5030112;28;20053;-80
2023/01/21 12:03:51;;;;;;;28.25;15.18;;;4.40;99.90;;;;;;5046164;28;20037;-80
2023/01/21 12:06:24;;;;;;;21.33;12.55;;;4.40;99.90;;;;;;5030631;28;20116;-80
2023/01/21 12:08:53;;;;;;;16.80;9.50;;;4.50;99.90;;;;;;5051277;28;20040;-80
2023/01/21 12:11:22;;;;;;;12.60;7.57;;;4.50;99.90;;;;;;5039396;28;20049;-80
2023/01/21 12:13:50;;;;;;;13.30;8.13;;;4.50;99.90;;;;;;5023892;28;20664;-81
2023/01/21 12:16:42;;;;;;;15.85;8.60;;;4.60;99.90;;;;;;5051272;28;20046;-80
2023/01/21 12:19:25;;;;;;;17.63;9.18;;;4.60;99.90;;;;;;5044087;28;20116;-81
2023/01/21 12:22:22;;;;;;;15.82;8.55;;;4.60;99.90;;;;;;5043655;28;20064;-81
2023/01/21 12:25:06;;;;;;;18.75;10.93;;;4.60;99.90;;;;;;5046594;28;20470;-81
2023/01/21 12:27:54;;;;;;;17.52;10.02;;;4.70;99.90;;;;;;5043988;28;20041;-80
2023/01/21 12:30:29;;;;;;;18.58;10.32;;;4.70;99.90;;;;;;5049894;28;20040;-80
2023/01/21 12:33:00;;;;;;;17.50;9.70;;;4.70;99.90;;;;;;5049026;28;20072;-80
2023/01/21 12:35:33;;;;;;;16.85;10.25;;;4.70;99.90;;;;;;5049642;28;20571;-80
2023/01/21 12:38:08;;;;;;;17.40;10.05;;;4.80;99.90;;;;;;5063286;28;20052;-81
2023/01/21 12:40:42;;;;;;;20.27;10.07;;;4.80;99.90;;;;;;5038209;28;20040;-81
2023/01/21 12:43:19;;;;;;;15.63;8.43;;;4.80;99.90;;;;;;5044549;28;20392;-80
2023/01/21 12:45:51;;;;;;;15.32;8.70;;;4.80;99.90;;;;;;5049557;28;20436;-80
2023/01/21 12:48:44;;;;;;;13.82;7.68;;;4.80;99.90;;;;;;5043513;28;20045;-80